• Join FlightAware (Why Join?)
  • Login
  • US Flag 
09:12AM EST


 

Airport Tracker/Info


-or-


 

Live Flight TrackerFlight Track Log ✈ EGF4247 ✈ 25-Apr-2013 ✈ KBUF - KORD

Flight Track Log - Related Links

Times and Time Zones

All times are in EDT time to prevent confusion due to time zone crossing. See the EGF4247 flight status page for this flight to view local times or setup timezone preferences in your user account.

Time Position Orientation Groundspeed Altitude Reporting Facility
EDT Latitude Longitude Course Direction KTS MPH feet Rate Location/Type
04:00PM 42.9333 -78.7500 270° West 154 177 1,300  Level Buffalo TRACON
04:00PM 42.9167 -78.7833 236° Southwest 190 219 2,900 1,860 Climbing Buffalo TRACON
04:01PM 42.9500 -78.8667 299° West 253 291 4,700 1,860 Climbing Buffalo TRACON
04:02PM 42.9500 -79.0562 270° West  Level FlightAware Approximate
04:02PM 42.9667 -78.9000 304° West 250 288 6,100  Level Toronto Center
04:03PM 42.9586 -79.1696 277° West  Level FlightAware Approximate
04:03PM 42.9667 -79.0000 270° West 250 288 8,900  Level Toronto Center
04:04PM 42.9667 -79.2830 270° West  Level FlightAware Approximate
04:04PM 42.9667 -79.0833 270° West 250 288 10,800  Level Toronto Center
04:05PM 42.9667 -79.3971 270° West  Level FlightAware Approximate
04:06PM 42.9833 -79.2833 277° West 280 322 13,900  Level Toronto Center
04:07PM 42.9833 -79.4000 270° West 300 345 15,400 1,500 Climbing Toronto Center
04:08PM 42.9833 -79.5167 270° West 300 345 16,900 1,440 Climbing Toronto Center
04:09PM 42.9833 -79.6333 270° West 310 357 18,300 1,380 Climbing Toronto Center
04:10PM 42.9833 -79.7500 270° West 310 357 19,700 1,500 Climbing Toronto Center
04:11PM 43.0000 -79.8833 280° West 310 357 21,300 1,680 Climbing Toronto Center
04:12PM 43.0000 -80.0000 270° West 300 345 23,100 1,440 Climbing Toronto Center
04:13PM 43.0000 -80.0833 270° West 300 345 24,200 1,080 Climbing Toronto Center
04:14PM 43.0000 -80.2333 270° West 310 357 25,300 960 Climbing Toronto Center
04:15PM 43.0167 -80.3333 283° West 320 368 26,200 900 Climbing Toronto Center
04:16PM 43.0167 -80.4500 270° West 320 368 27,200 900 Climbing Toronto Center
04:17PM 43.0167 -80.5833 270° West 330 380 28,100 840 Climbing Toronto Center
04:18PM 43.0167 -80.7333 270° West 330 380 28,900 780 Climbing Toronto Center
04:19PM 43.0167 -80.8500 270° West 340 391 29,700 540 Climbing Toronto Center
04:20PM 43.0167 -80.9833 270° West 350 403 30,000 120 Climbing Toronto Center
04:21PM 43.0167 -81.1167 270° West 360 414 30,000  Level Toronto Center
04:22PM 43.0167 -81.2500 270° West 350 403 30,000  Level Toronto Center
04:23PM 43.0333 -81.3833 280° West 350 403 30,000  Level Toronto Center
04:24PM 43.1000 -81.4833 312° West 350 403 30,000  Level Toronto Center
04:25PM 43.1667 -81.5833 312° West 360 414 30,000  Level Toronto Center
04:26PM 43.2500 -81.7000 314° West 370 426 30,000  Level Toronto Center
04:27PM 43.2833 -81.8167 291° West 370 426 30,000  Level Toronto Center
04:28PM 43.2500 -81.9500 251° West 360 414 30,000  Level Toronto Center
04:29PM 43.2333 -82.0833 260° West 360 414 30,000  Level Toronto Center
04:30PM 43.2167 -82.2000 259° West 350 403 30,000  Level Toronto Center
04:31PM 43.2000 -82.3333 260° West 350 403 30,000  Level Toronto Center
04:32PM 43.1833 -82.4667 260° West 360 414 30,000  Level Toronto Center
04:33PM 43.1667 -82.6000 260° West 360 414 30,000  Level Toronto Center
04:34PM 43.1536 -82.6892 259° West 355 409 30,000 -300 Level Cleveland Center
04:35PM 43.1303 -82.8219 257° West 355 409 29,500 -840 Descending Cleveland Center
04:36PM 43.1069 -82.9519 256° West 355 409 28,400 -780 Descending Cleveland Center
04:37PM 43.0833 -83.0875 257° West 355 409 28,000 -240 Descending Cleveland Center
04:38PM 43.0617 -83.2117 257° West 355 409 28,000  Level Cleveland Center
04:39PM 43.0378 -83.3414 256° West 355 409 28,000  Level Cleveland Center
04:40PM 43.0158 -83.4711 257° West 355 409 28,000  Level Cleveland Center
04:41PM 42.9892 -83.6175 256° West 360 414 28,000  Level Cleveland Center
04:42PM 42.9644 -83.7608 257° West 373 429 28,000  Level Cleveland Center
04:43PM 42.9503 -83.9022 262° West 378 435 28,000  Level Cleveland Center
04:44PM 42.9356 -84.0489 262° West 384 442 28,000  Level Cleveland Center
04:45PM 42.9228 -84.1928 263° West 389 448 28,000  Level Cleveland Center
04:46PM 42.9106 -84.3083 262° West 389 448 28,000  Level Cleveland Center
04:47PM 42.8906 -84.5175 263° West 381 438 28,000  Level Chicago Center
04:48PM 42.8764 -84.6614 262° West 382 440 28,000  Level Chicago Center
04:49PM 42.8617 -84.8044 262° West 381 438 28,000  Level Chicago Center
04:50PM 42.8458 -84.9453 261° West 378 435 28,000  Level Chicago Center
04:51PM 42.8311 -85.0872 262° West 378 435 28,000  Level Chicago Center
04:52PM 42.8136 -85.2539 262° West 372 428 28,000  Level Chicago Center
04:53PM 42.7978 -85.3964 261° West 378 435 28,000  Level Chicago Center
04:54PM 42.7803 -85.5419 261° West 388 447 28,000 -600 Level Chicago Center
04:55PM 42.7528 -85.6853 255° West 390 449 26,800 -1,500 Descending Chicago Center
04:56PM 42.7278 -85.8269 257° West 385 443 24,900 -1,860 Descending Chicago Center
04:57PM 42.7017 -85.9689 256° West 384 442 23,000 -1,800 Descending Chicago Center
04:58PM 42.6764 -86.1094 256° West 382 440 21,300 -1,140 Descending Chicago Center
05:00PM 42.6416 -86.2336 251° West  Level FlightAware Approximate
05:01PM 42.6217 -86.4006 251° West 357 411 19,600  Level Chicago Center
05:02PM 42.5964 -86.5308 255° West 356 410 18,100 -1,380 Descending Chicago Center
05:03PM 42.5731 -86.6586 256° West 351 404 16,800 -1,440 Descending Chicago Center
05:04PM 42.5469 -86.7867 255° West 353 406 15,200 -1,620 Descending Chicago Center
05:05PM 42.5117 -86.9058 248° West 345 397 13,500 -1,680 Descending Chicago Center
05:06PM 42.4731 -87.0472 250° West 336 387 11,700 -1,560 Descending Chicago Center
05:07PM 42.4414 -87.1608 249° West 328 377 10,300 -1,020 Descending Chicago Center
05:08PM 42.4169 -87.2553 251° West 272 313 9,700 -900 Descending Chicago Center
05:09PM 42.3606 -87.3075 214° Southwest 262 302 8,500 -840 Descending Chicago Center
05:10PM 42.2850 -87.2969 174° South 269 310 8,000 -480 Descending Chicago Center
05:11PM 42.1939 -87.2831 174° South 273 314 7,600 -540 Descending Chicago Center
05:12PM 42.1186 -87.2739 175° South 273 314 7,000 -300 Descending Chicago Center
05:13PM 42.0597 -87.3208 211° Southwest 245 282 7,000 -240 Level Chicago Center
05:14PM 42.0161 -87.3806 226° Southwest 228 262 6,600 -540 Descending Chicago Center
05:15PM 41.9822 -87.4497 237° Southwest 224 258 6,000 -360 Descending Chicago Center
05:16PM 41.9842 -87.5381 272° West 206 237 5,900 -540 Descending Chicago Center
05:17PM 41.9836 -87.6133 269° West 205 236 4,900 -1,020 Descending Chicago Center
05:18PM 41.9839 -87.6814 270° West 198 228 3,800 -1,080 Descending Chicago Center